Time;durP1;ratioP1;P1;durP2;ratioP2;P2;SDS_P1;SDS_P2;PMS_P1;PMS_P2;Temp;Humidity;BMP_temperature;BMP_pressure;BME280_temperature;BME280_humidity;BME280_pressure;Samples;Min_cycle;Max_cycle;Signal;HPM_P1;HPM_P2
2022/03/21 00:00:50;;;;;;;45.13;28.10;;;;;;;0.16;76.88;102766.22;4981702;28;20093;-78
2022/03/21 00:03:18;;;;;;;47.70;28.98;;;;;;;0.21;75.98;102771.53;4972494;28;20030;-78
2022/03/21 00:05:45;;;;;;;46.58;29.42;;;;;;;0.21;76.15;102772.41;4971820;28;20060;-78
2022/03/21 00:08:11;;;;;;;47.47;29.33;;;;;;;0.20;76.65;102773.28;4983936;28;20046;-78
2022/03/21 00:10:37;;;;;;;46.30;28.88;;;;;;;0.16;76.79;102771.50;4972067;28;20082;-78
2022/03/21 00:13:02;;;;;;;45.55;29.73;;;;;;;0.17;76.64;102773.28;4981693;28;20442;-78
2022/03/21 00:15:30;;;;;;;47.00;29.63;;;;;;;0.14;76.70;102773.28;4981465;28;20722;-78
2022/03/21 00:17:56;;;;;;;51.97;31.80;;;;;;;0.12;76.68;102769.75;4971786;28;20026;-78
2022/03/21 00:20:22;;;;;;;44.05;26.98;;;;;;;0.10;76.71;102771.50;4988564;28;20026;-78
2022/03/21 00:22:50;;;;;;;44.42;26.85;;;;;;;0.07;76.36;102772.38;4985062;28;20127;-78
2022/03/21 00:25:15;;;;;;;47.47;30.38;;;;;;;0.03;76.82;102775.91;4978630;28;20055;-78
2022/03/21 00:27:41;;;;;;;46.25;27.65;;;;;;;0.02;76.69;102773.25;4974406;28;20034;-78
2022/03/21 00:30:09;;;;;;;48.08;27.73;;;;;;;0.01;76.85;102779.41;4987420;28;20065;-78
2022/03/21 00:32:35;;;;;;;43.97;28.08;;;;;;;-0.03;77.15;102781.16;4981525;28;20030;-78
2022/03/21 00:35:01;;;;;;;45.90;30.27;;;;;;;-0.08;77.06;102777.66;4981537;28;20048;-78
2022/03/21 00:37:28;;;;;;;42.97;28.20;;;;;;;-0.13;77.15;102780.28;4987889;28;20036;-78
2022/03/21 00:39:54;;;;;;;48.60;27.73;;;;;;;-0.11;77.09;102798.78;4989248;28;20148;-78
2022/03/21 00:42:21;;;;;;;42.60;26.40;;;;;;;-0.10;76.59;102788.22;4983233;28;20490;-78
2022/03/21 00:44:46;;;;;;;40.50;26.60;;;;;;;-0.13;76.82;102792.59;4975188;28;20033;-78
2022/03/21 00:47:15;;;;;;;41.65;26.95;;;;;;;-0.20;77.33;102792.59;4989210;28;20034;-78
2022/03/21 00:49:41;;;;;;;43.70;27.65;;;;;;;-0.22;76.88;102796.09;4970867;28;20397;-78
2022/03/21 00:52:07;;;;;;;47.60;28.67;;;;;;;-0.23;76.51;102789.94;4970584;28;20055;-78
2022/03/21 00:54:32;;;;;;;47.42;29.95;;;;;;;-0.21;77.14;102793.44;4983957;28;20347;-78
2022/03/21 00:56:57;;;;;;;45.45;27.10;;;;;;;-0.19;76.62;102790.81;4979361;28;20093;-78
2022/03/21 00:59:23;;;;;;;44.10;28.13;;;;;;;-0.20;76.67;102795.22;4988554;28;20053;-78
2022/03/21 01:01:48;;;;;;;47.13;29.15;;;;;;;-0.19;76.91;102801.38;4996635;28;20548;-78
2022/03/21 01:04:13;;;;;;;47.80;29.55;;;;;;;-0.19;76.28;102797.00;4971004;28;20062;-78
2022/03/21 01:06:38;;;;;;;43.97;28.23;;;;;;;-0.20;76.48;102797.00;4979492;28;20065;-78
2022/03/21 01:09:04;;;;;;;46.22;28.95;;;;;;;-0.25;76.76;102804.91;4987567;28;20033;-78
2022/03/21 01:11:29;;;;;;;40.40;25.83;;;;;;;-0.29;76.55;102792.56;4985959;28;20113;-78
2022/03/21 01:13:55;;;;;;;43.30;26.63;;;;;;;-0.33;76.55;102801.34;4987587;28;20038;-78
2022/03/21 01:16:20;;;;;;;44.28;28.20;;;;;;;-0.38;76.97;102796.06;4990959;28;20034;-78
2022/03/21 01:18:45;;;;;;;46.92;29.75;;;;;;;-0.40;77.07;102797.78;4987781;28;20157;-78
2022/03/21 01:21:12;;;;;;;44.70;28.75;;;;;;;-0.44;76.33;102798.69;4987859;28;20390;-77
2022/03/21 01:23:38;;;;;;;46.28;26.90;;;;;;;-0.40;76.30;102799.56;4987891;28;20470;-77
2022/03/21 01:26:03;;;;;;;45.80;27.55;;;;;;;-0.38;77.03;102796.06;4989456;28;20042;-77
2022/03/21 01:28:29;;;;;;;43.88;26.75;;;;;;;-0.34;76.99;102798.69;4987862;28;20033;-77
2022/03/21 01:30:54;;;;;;;44.40;28.88;;;;;;;-0.32;76.42;102803.13;4993896;28;20046;-77
2022/03/21 01:33:19;;;;;;;43.58;27.80;;;;;;;-0.34;75.82;102802.22;4988338;28;20045;-77
2022/03/21 01:35:44;;;;;;;47.28;29.42;;;;;;;-0.39;76.29;102799.56;4987808;28;20035;-77
2022/03/21 01:38:10;;;;;;;45.75;28.60;;;;;;;-0.39;76.71;102802.19;4988073;28;20396;-77
2022/03/21 01:40:35;;;;;;;46.72;29.27;;;;;;;-0.41;77.15;102805.72;4988332;28;20042;-77
2022/03/21 01:43:00;;;;;;;46.28;29.20;;;;;;;-0.45;77.31;102809.25;4983554;28;20042;-77
2022/03/21 01:45:28;;;;;;;45.78;29.08;;;;;;;-0.48;77.68;102804.81;4990252;28;20034;-77
2022/03/21 01:47:54;;;;;;;42.75;27.25;;;;;;;-0.52;77.23;102808.31;4991300;28;20030;-77
2022/03/21 01:50:20;;;;;;;45.00;28.15;;;;;;;-0.54;76.84;102812.72;4990985;28;20034;-77
2022/03/21 01:52:45;;;;;;;46.42;29.10;;;;;;;-0.51;77.49;102809.19;4988625;28;20038;-77
2022/03/21 01:57:59;;;;;;;47.95;29.20;;;;;;;-0.53;77.80;102806.53;4978597;28;20104;-77
2022/03/21 02:00:24;;;;;;;46.92;30.55;;;;;;;-0.54;77.89;102803.03;4989511;28;20034;-77
2022/03/21 02:02:50;;;;;;;52.63;31.25;;;;;;;-0.55;77.75;102805.66;4993000;28;20398;-77
2022/03/21 02:05:15;;;;;;;44.65;28.80;;;;;;;-0.55;77.90;102806.53;4989511;28;20031;-77
2022/03/21 02:07:41;;;;;;;46.53;30.60;;;;;;;-0.56;77.56;102806.53;4976717;28;20149;-77
2022/03/21 02:10:07;;;;;;;48.30;31.17;;;;;;;-0.54;77.21;102804.81;4982139;28;20041;-77
2022/03/21 02:12:33;;;;;;;47.10;30.30;;;;;;;-0.51;77.21;102806.53;4978844;28;20125;-77
2022/03/21 02:14:59;;;;;;;48.88;30.83;;;;;;;-0.51;77.28;102804.81;4976238;28;20081;-77
2022/03/21 02:17:26;;;;;;;44.60;27.83;;;;;;;-0.51;76.87;102809.19;4972151;28;20034;-77
2022/03/21 02:19:53;;;;;;;46.33;28.25;;;;;;;-0.51;76.38;102815.38;4978196;28;20057;-77
2022/03/21 02:22:24;;;;;;;50.15;32.28;;;;;;;-0.52;76.32;102808.31;4975502;28;20043;-77
2022/03/21 02:25:02;;;;;;;46.78;28.52;;;;;;;-0.52;76.32;102818.88;4972413;28;20061;-77
2022/03/21 02:27:30;;;;;;;47.67;30.02;;;;;;;-0.54;76.01;102804.81;4971868;28;20039;-77
2022/03/21 02:29:56;;;;;;;49.95;32.78;;;;;;;-0.54;77.73;102805.66;4975325;28;20491;-77
2022/03/21 02:32:22;;;;;;;47.08;28.70;;;;;;;-0.54;77.51;102808.31;4975563;28;20034;-77
2022/03/21 02:34:48;;;;;;;48.13;30.88;;;;;;;-0.57;77.29;102821.50;4983399;28;20035;-77
2022/03/21 02:37:16;;;;;;;50.22;31.58;;;;;;;-0.62;77.80;102814.44;4976295;28;20121;-77
2022/03/21 02:39:43;;;;;;;46.92;29.00;;;;;;;-0.68;77.77;102817.03;4977988;28;20038;-78
2022/03/21 02:42:08;;;;;;;47.35;29.88;;;;;;;-0.74;78.03;102813.47;4990030;28;20041;-77
2022/03/21 02:44:38;;;;;;;50.38;30.10;;;;;;;-0.78;77.74;102810.81;4981165;28;20054;-77
2022/03/21 02:47:05;;;;;;;;;;;;;;;-0.70;76.34;102814.41;4994174;28;20026;-77
2022/03/21 02:49:30;;;;;;;46.17;28.50;;;;;;;-0.75;77.25;102814.38;4989173;28;19960;-77
2022/03/21 02:51:57;;;;;;;49.00;30.15;;;;;;;-0.75;76.91;102811.75;4988266;28;20030;-77
2022/03/21 02:54:23;;;;;;;48.35;30.25;;;;;;;-0.75;77.56;102806.47;4976328;28;20034;-77
2022/03/21 02:56:49;;;;;;;47.90;29.33;;;;;;;-0.76;78.19;102809.97;4989104;28;20034;-77
2022/03/21 02:59:18;;;;;;;49.97;31.10;;;;;;;-0.80;78.18;102809.94;4984651;28;20118;-77
2022/03/21 03:01:44;;;;;;;49.95;30.98;;;;;;;-0.80;77.64;102804.66;4989724;28;20058;-77
2022/03/21 03:04:09;;;;;;;44.05;29.88;;;;;;;-0.80;77.04;102799.38;4987331;28;20053;-77
2022/03/21 03:06:35;;;;;;;44.30;28.95;;;;;;;-0.80;77.34;102799.38;4975338;28;20031;-77
2022/03/21 03:09:00;;;;;;;48.90;31.48;;;;;;;-0.80;76.78;102807.31;4979207;28;20034;-77
2022/03/21 03:11:26;;;;;;;47.38;29.02;;;;;;;-0.81;77.07;102801.13;4993575;28;20030;-77
2022/03/21 03:13:51;;;;;;;48.60;29.50;;;;;;;-0.81;78.19;102802.88;4990290;28;20088;-77
2022/03/21 03:16:17;;;;;;;52.03;29.17;;;;;;;-0.85;78.42;102809.88;5001529;28;20026;-77
2022/03/21 03:18:44;;;;;;;44.65;29.38;;;;;;;-0.86;78.41;102808.16;4982979;28;20027;-77
2022/03/21 03:21:10;;;;;;;49.13;30.65;;;;;;;-0.89;78.18;102803.72;4974949;28;20014;-77
2022/03/21 03:23:38;;;;;;;47.80;28.52;;;;;;;-0.93;78.73;102801.06;4987003;28;20030;-77
2022/03/21 03:26:04;;;;;;;50.70;31.83;;;;;;;-0.94;77.90;102809.84;4984983;28;20113;-77
2022/03/21 03:28:31;;;;;;;47.97;30.13;;;;;;;-0.93;78.31;102812.50;4971418;28;20491;-77
2022/03/21 03:30:58;;;;;;;51.45;31.70;;;;;;;-0.93;77.61;102808.97;4988200;28;20534;-77
2022/03/21 03:33:24;;;;;;;51.67;32.10;;;;;;;-0.94;78.09;102815.13;4986383;28;20026;-77
2022/03/21 03:35:49;;;;;;;47.20;31.38;;;;;;;-0.99;78.53;102809.81;4978155;28;20030;-77
2022/03/21 03:38:16;;;;;;;49.30;30.20;;;;;;;-1.02;78.42;102812.44;4994219;28;20019;-77
2022/03/21 03:40:43;;;;;;;51.60;31.52;;;;;;;-1.01;78.66;102816.84;4978172;28;20526;-77
2022/03/21 03:43:08;;;;;;;47.08;29.27;;;;;;;-0.98;77.78;102818.59;4982206;28;20022;-77
2022/03/21 03:45:33;;;;;;;43.35;28.80;;;;;;;-0.98;78.09;102819.50;4980798;28;20031;-77
2022/03/21 03:47:58;;;;;;;44.28;29.15;;;;;;;-1.00;78.71;102817.72;4975367;28;20265;-77
2022/03/21 03:50:24;;;;;;;51.80;34.60;;;;;;;-1.02;78.63;102816.84;4972969;28;20025;-77
2022/03/21 03:52:49;;;;;;;52.10;32.90;;;;;;;-1.01;77.78;102821.22;4970787;28;20454;-77
2022/03/21 03:55:17;;;;;;;50.13;32.25;;;;;;;-1.00;78.30;102823.00;4971885;28;20026;-77
2022/03/21 03:57:43;;;;;;;53.78;32.53;;;;;;;-1.03;78.62;102823.84;4990624;28;20032;-77
2022/03/21 04:00:09;;;;;;;51.72;32.42;;;;;;;-1.08;78.74;102823.84;4981647;28;20035;-77
2022/03/21 04:03:44;;;;;;;52.65;32.53;;;;;;;-1.10;78.45;102822.94;4974139;28;20041;-77
2022/03/21 04:05:21;;;;;;;52.38;30.15;;;;;;;-1.06;78.60;102826.47;4980963;28;20085;-77
2022/03/21 04:07:46;;;;;;;51.47;31.40;;;;;;;-1.04;78.56;102826.50;4972838;28;20439;-77
2022/03/21 04:10:12;;;;;;;50.42;30.40;;;;;;;-1.07;78.82;102828.25;4971138;28;20023;-77
2022/03/21 04:12:37;;;;;;;49.17;32.60;;;;;;;-1.09;79.42;102834.38;4970286;28;20030;-77
2022/03/21 04:15:03;;;;;;;48.65;31.35;;;;;;;-1.12;79.49;102827.31;4974438;28;20030;-77
2022/03/21 04:17:28;;;;;;;50.83;32.78;;;;;;;-1.14;78.63;102831.72;4977391;28;20038;-77
2022/03/21 04:19:54;;;;;;;53.35;31.40;;;;;;;-1.12;78.67;102831.72;4975765;28;20026;-77
2022/03/21 04:22:19;;;;;;;53.08;33.42;;;;;;;-1.08;79.09;102830.88;4969449;28;20034;-77
2022/03/21 04:24:44;;;;;;;49.67;31.58;;;;;;;-1.08;78.87;102829.13;4970332;28;20413;-77
2022/03/21 04:27:09;;;;;;;54.15;33.28;;;;;;;-1.10;79.38;102833.50;4984935;28;20053;-77
2022/03/21 04:29:35;;;;;;;54.40;34.17;;;;;;;-1.13;79.69;102827.31;4972772;28;20069;-77
2022/03/21 04:32:01;;;;;;;52.03;32.78;;;;;;;-1.15;79.76;102832.56;4976571;28;20034;-78
2022/03/21 04:34:26;;;;;;;51.92;32.15;;;;;;;-1.19;79.24;102828.16;4973913;28;20031;-77
2022/03/21 04:36:52;;;;;;;53.03;33.83;;;;;;;-1.18;79.58;102821.13;4979727;28;20030;-77
2022/03/21 04:39:17;;;;;;;53.28;32.80;;;;;;;-1.17;79.25;102829.06;4989780;28;20023;-77
2022/03/21 04:41:42;;;;;;;53.72;33.90;;;;;;;-1.16;78.47;102829.94;4979901;28;20489;-77
2022/03/21 04:44:07;;;;;;;50.35;30.60;;;;;;;-1.15;79.27;102826.44;4972874;28;20118;-77
2022/03/21 04:46:33;;;;;;;49.35;31.52;;;;;;;-1.17;79.34;102833.44;4975755;28;20041;-77
2022/03/21 04:48:58;;;;;;;52.40;32.88;;;;;;;-1.20;79.45;102826.41;4981943;28;20057;-78
2022/03/21 04:51:23;;;;;;;53.50;32.38;;;;;;;-1.24;79.73;102829.88;4986143;28;20030;-77
2022/03/21 04:53:48;;;;;;;53.83;33.08;;;;;;;-1.30;79.85;102829.84;4977419;28;20026;-77
2022/03/21 04:56:14;;;;;;;52.33;33.00;;;;;;;-1.35;79.83;102839.44;4977935;28;20402;-77
2022/03/21 04:58:39;;;;;;;53.33;32.92;;;;;;;-1.39;80.32;102832.38;4968588;28;20081;-77
2022/03/21 05:01:04;;;;;;;50.80;32.63;;;;;;;-1.41;79.52;102837.63;4974049;28;20034;-77
2022/03/21 05:03:29;;;;;;;57.63;33.17;;;;;;;-1.39;79.80;102848.19;4977557;28;20099;-77
2022/03/21 05:05:55;;;;;;;49.28;30.80;;;;;;;-1.38;79.71;102842.06;4985674;28;20030;-77
2022/03/21 05:08:22;;;;;;;53.03;32.95;;;;;;;-1.36;79.62;102846.50;4990441;28;20811;-77
2022/03/21 05:10:47;;;;;;;50.88;31.02;;;;;;;-1.33;79.87;102848.25;4978895;28;20437;-77
2022/03/21 05:13:13;;;;;;;54.25;34.38;;;;;;;-1.31;78.79;102849.16;4985259;28;20116;-77
2022/03/21 05:15:38;;;;;;;53.28;33.55;;;;;;;-1.28;79.37;102849.19;4990844;28;20056;-77
2022/03/21 05:18:04;;;;;;;48.92;32.40;;;;;;;-1.28;78.54;102852.69;4973054;28;20054;-77
2022/03/21 05:20:29;;;;;;;56.85;32.20;;;;;;;-1.27;78.28;102849.19;4976163;28;20027;-77
2022/03/21 05:31:08;;;;;;;48.88;31.77;;;;;;;-1.26;77.44;102850.06;4979514;28;20094;-77
2022/03/21 05:36:18;;;;;;;51.80;31.80;;;;;;;-1.24;78.58;102850.97;4977415;28;20455;-77
2022/03/21 05:38:44;;;;;;;51.85;32.17;;;;;;;-1.23;79.13;102850.09;4989609;28;20038;-77
2022/03/21 05:41:10;;;;;;;54.30;34.55;;;;;;;-1.22;78.69;102851.88;5005816;28;20054;-77
2022/03/21 05:43:35;;;;;;;53.15;31.98;;;;;;;-1.23;78.85;102848.34;4976428;28;20099;-77
2022/03/21 05:46:03;;;;;;;48.92;30.48;;;;;;;-1.24;78.74;102849.22;4986165;28;20030;-77
2022/03/21 05:51:14;;;;;;;53.20;31.88;;;;;;;-1.26;79.82;102850.06;4975166;28;20045;-77
2022/03/21 05:53:40;;;;;;;52.58;34.97;;;;;;;-1.29;79.95;102852.69;4977845;28;20030;-77
2022/03/21 05:56:05;;;;;;;51.47;33.53;;;;;;;-1.31;80.17;102857.06;4978034;28;20033;-77
2022/03/21 05:58:31;;;;;;;54.13;34.30;;;;;;;-1.31;80.47;102855.31;4981599;28;20037;-77
2022/03/21 06:00:56;;;;;;;52.85;33.20;;;;;;;-1.31;80.58;102870.25;4977814;28;20031;-77
2022/03/21 06:03:24;;;;;;;53.53;33.28;;;;;;;-1.33;80.87;102867.63;4973843;28;20030;-77
2022/03/21 06:05:50;;;;;;;52.70;32.58;;;;;;;-1.30;80.28;102866.78;4986140;28;20062;-77
2022/03/21 06:08:15;;;;;;;52.50;32.45;;;;;;;-1.26;80.60;102868.53;4973008;28;20023;-77
2022/03/21 06:10:41;;;;;;;55.70;33.90;;;;;;;-1.24;80.14;102866.81;4986597;28;20104;-77
2022/03/21 06:13:06;;;;;;;53.50;33.42;;;;;;;-1.19;80.52;102875.63;4986011;28;20426;-77
2022/03/21 06:15:32;;;;;;;52.67;30.65;;;;;;;-1.18;80.81;102866.84;4977957;28;20026;-77
2022/03/21 06:17:59;;;;;;;48.85;30.10;;;;;;;-1.15;80.67;102874.78;4982080;28;20031;-77
2022/03/21 06:20:25;;;;;;;53.55;34.30;;;;;;;-1.13;80.15;102877.44;4988639;28;20026;-77
2022/03/21 06:22:51;;;;;;;51.63;32.92;;;;;;;-1.11;79.59;102873.09;4992908;28;20022;-77
2022/03/21 06:25:16;;;;;;;48.42;32.55;;;;;;;-1.08;79.85;102881.88;4987986;28;20093;-77
2022/03/21 06:27:41;;;;;;;56.35;34.63;;;;;;;-1.03;80.05;102889.84;4983442;28;20053;-74
2022/03/21 06:30:09;;;;;;;51.78;31.50;;;;;;;-0.95;81.01;102884.59;5002302;28;20494;-77
2022/03/21 06:32:35;;;;;;;85.55;35.45;;;;;;;-0.88;81.37;102889.97;4991542;28;20383;-77
2022/03/21 06:35:00;;;;;;;54.42;34.55;;;;;;;-0.81;81.21;102890.00;4978950;28;20049;-78
2022/03/21 06:37:26;;;;;;;51.55;33.78;;;;;;;-0.77;80.33;102879.47;4997427;28;20018;-78
2022/03/21 06:39:51;;;;;;;56.78;32.17;;;;;;;-0.72;80.50;102890.06;4988744;28;20027;-78
2022/03/21 06:42:19;;;;;;;51.25;31.95;;;;;;;-0.66;80.59;102884.84;4991306;28;20133;-77
2022/03/21 06:44:45;;;;;;;52.88;33.70;;;;;;;-0.60;80.40;102886.63;4987653;28;20022;-77
2022/03/21 06:47:11;;;;;;;50.70;32.30;;;;;;;-0.52;81.27;102894.59;4989226;28;20025;-79
2022/03/21 06:49:36;;;;;;;56.80;33.92;;;;;;;-0.43;81.68;102895.53;4980879;28;20031;-77
2022/03/21 06:52:04;;;;;;;51.53;33.97;;;;;;;-0.36;81.57;102899.09;4990037;28;20492;-77
2022/03/21 06:54:30;;;;;;;51.90;33.17;;;;;;;-0.26;81.80;102900.03;4992801;28;20382;-77
2022/03/21 06:56:55;;;;;;;53.45;34.63;;;;;;;-0.17;81.93;102899.19;4989027;28;20034;-77
2022/03/21 06:59:21;;;;;;;52.28;32.10;;;;;;;-0.10;81.83;102900.97;4970935;28;20137;-76
2022/03/21 07:01:46;;;;;;;59.22;34.38;;;;;;;-0.01;83.12;102904.53;4983613;28;20070;-77
2022/03/21 07:04:11;;;;;;;52.97;34.25;;;;;;;0.06;82.37;102901.91;4976905;28;20093;-76
2022/03/21 07:06:37;;;;;;;57.55;35.35;;;;;;;0.13;82.43;102911.63;4961521;28;20052;-78
2022/03/21 07:09:02;;;;;;;54.90;34.90;;;;;;;0.21;82.40;102909.03;4973196;28;20117;-79
2022/03/21 07:11:29;;;;;;;53.08;34.95;;;;;;;0.29;82.27;102902.00;4972167;28;20591;-78
2022/03/21 07:13:54;;;;;;;54.22;36.20;;;;;;;0.38;82.51;102914.34;4975226;28;20105;-80
2022/03/21 07:16:20;;;;;;;54.40;35.72;;;;;;;0.48;82.95;102914.41;4977910;28;20130;-79
2022/03/21 07:18:45;;;;;;;51.17;34.28;;;;;;;0.59;83.27;102919.69;4971318;28;20027;-78
2022/03/21 07:21:13;;;;;;;58.08;37.00;;;;;;;0.70;83.71;102914.41;4972402;28;20022;-78
2022/03/21 07:23:39;;;;;;;62.78;36.40;;;;;;;0.80;84.29;102917.97;4982559;28;20028;-78
2022/03/21 07:26:04;;;;;;;59.40;38.47;;;;;;;0.90;84.58;102921.50;4997083;28;20483;-79
2022/03/21 07:28:30;;;;;;;58.95;36.53;;;;;;;1.01;84.48;102917.97;5006782;28;20077;-79
2022/03/21 07:30:55;;;;;;;56.35;37.38;;;;;;;1.13;84.43;102919.75;4994354;28;20026;-79
2022/03/21 07:33:20;;;;;;;58.92;37.80;;;;;;;1.22;84.33;102918.84;5002654;28;20030;-79
2022/03/21 07:35:46;;;;;;;61.15;39.33;;;;;;;1.32;83.74;102912.66;5009153;28;20475;-79
2022/03/21 07:38:12;;;;;;;57.08;36.10;;;;;;;1.43;84.34;102909.09;4997220;28;20105;-80
2022/03/21 07:40:37;;;;;;;56.10;37.80;;;;;;;1.52;84.45;102920.59;5005096;28;20071;-80
2022/03/21 07:43:02;;;;;;;53.05;37.75;;;;;;;1.62;84.59;102918.78;5000495;28;20037;-79
2022/03/21 07:48:12;;;;;;;52.78;37.15;;;;;;;1.87;85.23;102916.91;4994049;28;20103;-79
2022/03/21 07:50:38;;;;;;;70.93;37.20;;;;;;;2.01;85.48;102926.63;5003315;28;20507;-79
2022/03/21 07:53:04;;;;;;;64.82;36.22;;;;;;;2.12;85.89;102921.25;4991867;28;20486;-79
2022/03/21 07:55:32;;;;;;;57.03;36.45;;;;;;;2.25;87.08;102912.34;5005408;28;20040;-78
2022/03/21 07:57:59;;;;;;;56.63;34.78;;;;;;;2.39;87.38;102912.28;5006563;28;20026;-78
2022/03/21 08:00:26;;;;;;;53.72;36.08;;;;;;;2.49;87.77;102910.44;5007798;28;20434;-79
2022/03/21 08:02:51;;;;;;;57.78;36.30;;;;;;;2.58;87.40;102915.72;4993121;28;20482;-79
2022/03/21 08:05:17;;;;;;;52.25;33.83;;;;;;;2.70;88.34;102909.44;5001273;28;20101;-78
2022/03/21 08:07:43;;;;;;;45.80;31.17;;;;;;;2.84;88.50;102917.28;5008505;28;20033;-78
2022/03/21 08:10:10;;;;;;;50.33;30.10;;;;;;;2.93;88.21;102914.56;4998750;28;20037;-78
2022/03/21 08:12:35;;;;;;;48.33;30.92;;;;;;;3.00;88.13;102918.91;5002140;28;20084;-78
2022/03/21 08:15:01;;;;;;;45.42;29.52;;;;;;;3.11;88.28;102917.06;5004300;28;20461;-78
2022/03/21 08:17:26;;;;;;;46.00;26.80;;;;;;;3.14;85.96;102922.34;4999795;28;20026;-78
2022/03/21 08:19:52;;;;;;;40.33;26.35;;;;;;;3.31;87.26;102929.31;4997093;28;20026;-78
2022/03/21 08:22:19;;;;;;;47.00;24.35;;;;;;;3.52;86.64;102916.69;5008736;28;20481;-78
2022/03/21 08:24:45;;;;;;;39.17;22.95;;;;;;;3.70;86.31;102921.78;4995826;28;20050;-77
2022/03/21 08:27:10;;;;;;;43.92;21.70;;;;;;;3.89;85.32;102924.25;5007192;28;20041;-76
2022/03/21 08:29:35;;;;;;;40.75;21.58;;;;;;;4.14;84.80;102917.75;5000077;28;20480;-79
2022/03/21 08:32:00;;;;;;;34.83;20.08;;;;;;;4.24;82.92;102918.47;4997841;28;20030;-79
2022/03/21 08:34:26;;;;;;;35.50;19.52;;;;;;;4.36;80.63;102917.44;5004168;28;20030;-79
2022/03/21 08:36:51;;;;;;;35.97;19.77;;;;;;;4.45;80.34;102916.41;4995502;28;20105;-78
2022/03/21 08:39:17;;;;;;;35.15;18.10;;;;;;;4.55;81.10;102918.03;4984081;28;20038;-79
2022/03/21 08:41:42;;;;;;;32.20;17.60;;;;;;;4.63;79.19;102915.28;4982717;28;20045;-79
2022/03/21 08:44:08;;;;;;;34.15;18.05;;;;;;;4.82;80.28;102914.09;4987946;28;20033;-79
2022/03/21 08:46:33;;;;;;;33.90;18.05;;;;;;;5.01;78.34;102916.47;4978351;28;20039;-79
2022/03/21 08:51:43;;;;;;;41.42;17.60;;;;;;;5.49;77.24;102913.84;5000251;28;20103;-79
2022/03/21 08:54:09;;;;;;;31.23;17.15;;;;;;;5.55;75.78;102910.16;4990954;28;20037;-79
2022/03/21 08:56:34;;;;;;;34.88;16.92;;;;;;;5.73;76.34;102917.81;5005247;28;20389;-79
2022/03/21 08:59:00;;;;;;;30.08;15.43;;;;;;;5.86;75.69;102910.44;5001552;28;20045;-79
2022/03/21 09:01:26;;;;;;;35.25;16.17;;;;;;;5.99;73.92;102915.53;4997020;28;20053;-79
2022/03/21 09:03:52;;;;;;;38.30;17.55;;;;;;;6.11;73.97;102912.63;4998576;28;20053;-79
2022/03/21 09:06:20;;;;;;;33.05;16.42;;;;;;;6.24;73.32;102908.78;5008005;28;20117;-79
2022/03/21 09:08:46;;;;;;;30.92;16.35;;;;;;;6.31;72.91;102912.22;5007035;28;20022;-79
2022/03/21 09:11:11;;;;;;;36.45;16.88;;;;;;;6.37;72.69;102908.50;5006226;28;20036;-80
2022/03/21 09:13:36;;;;;;;33.60;16.23;;;;;;;6.33;72.11;102909.50;4985103;28;20038;-80
2022/03/21 09:16:02;;;;;;;31.05;16.73;;;;;;;6.39;73.24;102917.38;5005879;28;20506;-80
2022/03/21 09:18:27;;;;;;;32.38;16.02;;;;;;;6.46;71.70;102914.53;4998188;28;20045;-79
2022/03/21 09:20:52;;;;;;;34.40;16.92;;;;;;;6.58;72.01;102923.19;5004949;28;20478;-78
2022/03/21 09:23:17;;;;;;;32.33;17.33;;;;;;;6.81;72.19;102914.63;5007950;28;20026;-79
2022/03/21 09:25:43;;;;;;;30.98;15.93;;;;;;;6.94;71.52;102909.81;4991203;28;20042;-78
2022/03/21 09:28:08;;;;;;;32.22;17.35;;;;;;;6.97;72.10;102909.78;4996765;28;20435;-77
2022/03/21 09:30:34;;;;;;;32.95;16.85;;;;;;;7.07;71.41;102900.59;4987903;28;20105;-77
2022/03/21 09:32:59;;;;;;;31.05;16.42;;;;;;;7.15;70.25;102900.41;4992148;28;20030;-78
2022/03/21 09:35:25;;;;;;;37.88;15.27;;;;;;;7.20;70.11;102889.56;4995946;28;20109;-78
2022/03/21 09:37:50;;;;;;;31.20;15.45;;;;;;;7.22;69.39;102896.66;5000577;28;20380;-78
2022/03/21 09:40:19;;;;;;;28.92;15.75;;;;;;;7.23;69.00;102895.72;4995232;28;20025;-78
2022/03/21 09:42:45;;;;;;;31.38;14.88;;;;;;;7.32;70.32;102889.25;4991817;28;20100;-78
2022/03/21 09:45:11;;;;;;;29.15;15.10;;;;;;;7.47;68.63;102901.34;4996346;28;20505;-78
2022/03/21 09:50:28;;;;;;;29.20;15.05;;;;;;;7.75;68.21;102889.88;5002920;28;20052;-78
2022/03/21 09:52:53;;;;;;;27.77;14.48;;;;;;;7.84;67.25;102889.59;5008571;28;20037;-78
2022/03/21 09:55:19;;;;;;;29.95;13.27;;;;;;;8.02;67.12;102890.84;4997532;28;20030;-77
2022/03/21 09:57:44;;;;;;;33.30;15.48;;;;;;;8.10;65.26;102893.31;5003798;28;20044;-78
2022/03/21 10:00:11;;;;;;;30.45;15.90;;;;;;;8.35;65.33;102883.59;5002490;28;20034;-78
2022/03/21 10:02:36;;;;;;;31.05;14.65;;;;;;;8.57;64.14;102875.78;5005173;28;20026;-78
2022/03/21 10:05:01;;;;;;;30.50;14.32;;;;;;;8.66;64.94;102882.63;4986928;28;20030;-78
2022/03/21 10:07:27;;;;;;;32.10;15.63;;;;;;;8.69;63.34;102885.22;5001089;28;20038;-78
2022/03/21 10:10:06;;;;;;;29.88;14.25;;;;;;;8.79;65.29;102887.63;5009380;28;20393;-78
2022/03/21 10:12:32;;;;;;;29.15;14.15;;;;;;;8.85;64.92;102885.59;5002469;28;20030;-79
2022/03/21 10:14:59;;;;;;;29.38;14.63;;;;;;;8.84;64.64;102878.47;4993590;28;20376;-78
2022/03/21 10:17:24;;;;;;;27.55;14.77;;;;;;;8.77;66.15;102873.38;5008842;28;20156;-78
2022/03/21 10:19:52;;;;;;;30.77;14.82;;;;;;;8.87;63.68;102880.19;5001710;28;20496;-78
2022/03/21 10:22:37;;;;;;;34.33;15.60;;;;;;;8.93;65.10;102871.91;4995173;28;20038;-79
2022/03/21 10:25:05;;;;;;;33.95;15.88;;;;;;;9.05;63.49;102874.19;4981010;28;20506;-79
2022/03/21 10:27:41;;;;;;;29.23;16.13;;;;;;;9.17;64.05;102869.34;4980148;28;20110;-78
2022/03/21 10:30:09;;;;;;;30.92;15.27;;;;;;;9.30;63.91;102867.97;4985197;28;20033;-78
2022/03/21 10:32:44;;;;;;;31.13;16.67;;;;;;;9.39;63.47;102867.63;4990822;28;20568;-78
2022/03/21 10:35:17;;;;;;;31.10;15.48;;;;;;;9.48;62.05;102871.81;4988346;28;20034;-79
2022/03/21 10:37:48;;;;;;;28.02;15.40;;;;;;;9.64;62.80;102866.75;4994936;28;20061;-79
2022/03/21 10:40:30;;;;;;;29.98;15.20;;;;;;;9.66;63.18;102875.59;4991436;28;20039;-79
2022/03/21 10:42:57;;;;;;;28.10;15.90;;;;;;;9.68;62.30;102879.13;4999437;28;20392;-78
2022/03/21 10:45:23;;;;;;;29.63;16.65;;;;;;;9.75;62.28;102871.72;5006004;28;20022;-79
2022/03/21 10:47:53;;;;;;;31.20;16.88;;;;;;;9.97;61.90;102866.41;5005616;28;20172;-79
2022/03/21 10:50:32;;;;;;;32.92;17.25;;;;;;;10.00;62.57;102871.69;4999527;28;20105;-78
2022/03/21 10:53:32;;;;;;;32.00;16.77;;;;;;;10.05;61.90;102866.97;4993566;28;20025;-79
2022/03/21 10:55:57;;;;;;;29.08;16.30;;;;;;;10.13;61.87;102862.19;5004552;28;20108;-74
2022/03/21 10:58:34;;;;;;;28.60;16.30;;;;;;;10.15;64.01;102854.94;5000008;28;20034;-73
2022/03/21 11:01:17;;;;;;;27.88;14.35;;;;;;;10.10;63.97;102851.56;5006087;28;20120;-72
2022/03/21 11:03:45;;;;;;;30.65;18.90;;;;;;;10.12;63.57;102852.38;5008172;28;20367;-73
2022/03/21 11:06:12;;;;;;;35.25;22.73;;;;;;;10.07;63.35;102856.19;5001615;28;20031;-73
2022/03/21 11:08:38;;;;;;;31.77;18.48;;;;;;;10.15;62.85;102848.72;5006610;28;20109;-74
2022/03/21 11:11:05;;;;;;;36.45;19.25;;;;;;;10.19;63.34;102852.13;5003632;28;20033;-73
2022/03/21 11:13:31;;;;;;;29.02;14.63;;;;;;;10.20;63.00;102851.22;5005225;28;20052;-74
2022/03/21 11:15:57;;;;;;;31.67;16.85;;;;;;;10.34;63.14;102843.50;5002911;28;20053;-73
2022/03/21 11:18:25;;;;;;;33.83;17.60;;;;;;;10.52;62.54;102849.06;5001148;28;20038;-73
2022/03/21 11:20:51;;;;;;;31.95;16.55;;;;;;;10.67;62.98;102851.09;5005428;28;20148;-74
2022/03/21 11:23:18;;;;;;;33.28;17.48;;;;;;;10.77;63.11;102843.53;5008011;28;20506;-73
2022/03/21 11:25:49;;;;;;;35.25;18.00;;;;;;;10.84;62.22;102850.41;5007434;28;20049;-73
2022/03/21 11:28:38;;;;;;;30.88;15.95;;;;;;;10.77;62.44;102847.09;5000581;28;20033;-73
2022/03/21 11:31:34;;;;;;;32.72;16.98;;;;;;;10.72;62.09;102838.38;5002452;28;20026;-75
2022/03/21 11:34:26;;;;;;;32.38;17.08;;;;;;;10.78;63.04;102829.16;5007621;28;20069;-74